Time;durP1;ratioP1;P1;durP2;ratioP2;P2;SDS_P1;SDS_P2;PMS_P1;PMS_P2;Temp;Humidity;BMP_temperature;BMP_pressure;BME280_temperature;BME280_humidity;BME280_pressure;Samples;Min_cycle;Max_cycle;Signal;HPM_P1;HPM_P2
2021/08/06 00:00:41;;;;;;;0.20;0.20;;;;;;;;;;8294837;28;20463;-77
2021/08/06 00:04:46;;;;;;;0.93;0.52;;;;;;;;;;8280837;28;20474;-78
2021/08/06 00:08:51;;;;;;;1.05;0.35;;;;;;;;;;8243229;28;20464;-78
2021/08/06 00:12:55;;;;;;;0.50;0.50;;;;;;;;;;8259168;28;20059;-78
2021/08/06 00:17:00;;;;;;;0.63;0.30;;;;;;;;;;8242566;28;20076;-77
2021/08/06 00:21:07;;;;;;;0.50;0.38;;;;;;;;;;8242190;28;20439;-78
2021/08/06 00:25:12;;;;;;;0.60;0.35;;;;;;;;;;8259519;28;20509;-78
2021/08/06 00:29:18;;;;;;;3.85;0.52;;;;;;;;;;8259058;28;20349;-78
2021/08/06 00:33:23;;;;;;;0.40;0.40;;;;;;;;;;8259668;28;20448;-79
2021/08/06 00:37:36;;;;;;;0.60;0.50;;;;;;;;;;8259083;28;20483;-77
2021/08/06 00:41:43;;;;;;;0.88;0.50;;;;;;;;;;8241242;28;20360;-78
2021/08/06 00:45:52;;;;;;;1.92;0.70;;;;;;;;;;8242679;28;20064;-78
2021/08/06 00:50:02;;;;;;;0.47;0.45;;;;;;;;;;8242945;28;20448;-76
2021/08/06 00:54:09;;;;;;;1.60;0.52;;;;;;;;;;8241993;28;20044;-78
2021/08/06 00:58:23;;;;;;;0.40;0.40;;;;;;;;;;8242507;28;20381;-78
2021/08/06 01:03:03;;;;;;;0.50;0.45;;;;;;;;;;8240310;28;20334;-79
2021/08/06 01:07:12;;;;;;;0.50;0.43;;;;;;;;;;8257611;28;20371;-79
2021/08/06 01:11:23;;;;;;;0.65;0.60;;;;;;;;;;8225390;28;20067;-78
2021/08/06 01:15:30;;;;;;;1.77;0.40;;;;;;;;;;8208237;28;20486;-78
2021/08/06 01:19:37;;;;;;;1.88;0.50;;;;;;;;;;8240105;28;20408;-78
2021/08/06 01:23:46;;;;;;;0.75;0.60;;;;;;;;;;8240820;28;20376;-78
2021/08/06 01:27:52;;;;;;;2.30;0.50;;;;;;;;;;8241280;28;20329;-78
2021/08/06 01:32:01;;;;;;;0.60;0.47;;;;;;;;;;8240876;28;20060;-78
2021/08/06 01:36:08;;;;;;;0.40;0.40;;;;;;;;;;8240359;28;20079;-79
2021/08/06 01:40:14;;;;;;;0.47;0.47;;;;;;;;;;8242794;28;20049;-78
2021/08/06 01:44:35;;;;;;;0.40;0.32;;;;;;;;;;8222830;28;20498;-78
2021/08/06 01:48:43;;;;;;;0.90;0.30;;;;;;;;;;8257177;28;20498;-78
2021/08/06 01:52:59;;;;;;;1.02;0.57;;;;;;;;;;8239730;28;20395;-78
2021/08/06 01:57:13;;;;;;;0.30;0.30;;;;;;;;;;8242183;28;20345;-78
2021/08/06 02:01:21;;;;;;;1.88;0.80;;;;;;;;;;8240795;28;20375;-77
2021/08/06 02:05:44;;;;;;;1.10;0.52;;;;;;;;;;8242731;28;20049;-77
2021/08/06 02:09:55;;;;;;;0.40;0.40;;;;;;;;;;8240237;28;20093;-79
2021/08/06 02:14:07;;;;;;;4.30;0.50;;;;;;;;;;8242529;28;20379;-77
2021/08/06 02:18:16;;;;;;;0.40;0.40;;;;;;;;;;8242170;28;20085;-77
2021/08/06 02:22:31;;;;;;;1.95;0.50;;;;;;;;;;8240022;28;20340;-78
2021/08/06 02:26:37;;;;;;;0.68;0.60;;;;;;;;;;8239859;28;20064;-78
2021/08/06 02:30:44;;;;;;;1.75;0.30;;;;;;;;;;8222103;28;20491;-77
2021/08/06 02:34:51;;;;;;;0.60;0.60;;;;;;;;;;8226427;28;20345;-78
2021/08/06 02:38:59;;;;;;;0.60;0.57;;;;;;;;;;8224478;28;20480;-79
2021/08/06 02:43:05;;;;;;;0.50;0.40;;;;;;;;;;8261643;28;20048;-78
2021/08/06 02:47:11;;;;;;;0.50;0.50;;;;;;;;;;8241001;28;20480;-79
2021/08/06 02:51:16;;;;;;;1.85;0.52;;;;;;;;;;8240479;28;20482;-79
2021/08/06 02:55:22;;;;;;;0.95;0.40;;;;;;;;;;8239207;28;20403;-77
2021/08/06 02:59:27;;;;;;;1.10;0.57;;;;;;;;;;8223104;28;20346;-78
2021/08/06 03:03:32;;;;;;;1.52;0.40;;;;;;;;;;8205074;28;20495;-79
2021/08/06 03:07:40;;;;;;;;;;;;;;;;;;8228049;28;20071;-79
2021/08/06 03:11:45;;;;;;;0.50;0.50;;;;;;;;;;8230698;28;20964;-78
2021/08/06 03:15:51;;;;;;;0.40;0.40;;;;;;;;;;8228623;28;20476;-79
2021/08/06 03:19:57;;;;;;;0.73;0.70;;;;;;;;;;8213225;28;20069;-78
2021/08/06 03:24:02;;;;;;;0.65;0.45;;;;;;;;;;8229746;28;20346;-78
2021/08/06 03:28:08;;;;;;;0.60;0.60;;;;;;;;;;8229328;28;20050;-78
2021/08/06 03:32:13;;;;;;;1.20;0.73;;;;;;;;;;8211898;28;20399;-78
2021/08/06 03:36:19;;;;;;;0.70;0.70;;;;;;;;;;8230867;28;20376;-79
2021/08/06 03:40:28;;;;;;;1.50;0.50;;;;;;;;;;8213638;28;20461;-78
2021/08/06 03:44:34;;;;;;;0.68;0.60;;;;;;;;;;8231569;28;20364;-78
2021/08/06 03:48:41;;;;;;;0.55;0.55;;;;;;;;;;8212442;28;20487;-78
2021/08/06 03:52:51;;;;;;;0.85;0.70;;;;;;;;;;8195209;28;20488;-79
2021/08/06 03:56:56;;;;;;;0.70;0.70;;;;;;;;;;8228773;28;20377;-79
2021/08/06 04:01:01;;;;;;;0.68;0.50;;;;;;;;;;8259912;28;20379;-77
2021/08/06 04:05:10;;;;;;;1.25;0.60;;;;;;;;;;8260045;28;20392;-78
2021/08/06 04:09:16;;;;;;;1.27;0.60;;;;;;;;;;8225991;28;20480;-79
2021/08/06 04:13:21;;;;;;;1.83;0.60;;;;;;;;;;8227841;28;20460;-78
2021/08/06 04:17:26;;;;;;;0.60;0.60;;;;;;;;;;8246398;28;20349;-78
2021/08/06 04:21:31;;;;;;;3.08;0.90;;;;;;;;;;8193614;28;20490;-79
2021/08/06 04:25:36;;;;;;;3.10;0.70;;;;;;;;;;8243678;28;20486;-77
2021/08/06 04:29:42;;;;;;;0.80;0.80;;;;;;;;;;8243441;28;20037;-78
2021/08/06 04:33:47;;;;;;;0.90;0.82;;;;;;;;;;8226977;28;20478;-78
2021/08/06 04:41:42;;;;;;;1.30;0.70;;;;;;;;;;8321632;27;1626216;-79
2021/08/06 04:45:49;;;;;;;0.57;0.57;;;;;;;;;;8371821;28;20065;-80
2021/08/06 04:49:55;;;;;;;1.35;0.80;;;;;;;;;;8370799;28;20528;-78
2021/08/06 04:54:02;;;;;;;0.85;0.70;;;;;;;;;;8352144;28;20482;-78
2021/08/06 04:58:06;;;;;;;1.30;0.93;;;;;;;;;;8367815;28;20470;-77
2021/08/06 05:02:13;;;;;;;2.70;0.73;;;;;;;;;;8352461;28;20043;-77
2021/08/06 05:06:19;;;;;;;2.83;0.70;;;;;;;;;;8297184;28;20080;-77
2021/08/06 05:10:26;;;;;;;1.38;0.70;;;;;;;;;;8372405;28;20077;-78
2021/08/06 05:14:31;;;;;;;1.38;0.60;;;;;;;;;;8349525;28;20404;-78
2021/08/06 05:18:38;;;;;;;1.15;0.80;;;;;;;;;;8365586;28;20039;-79
2021/08/06 05:22:45;;;;;;;1.70;0.70;;;;;;;;;;8365979;28;20450;-78
2021/08/06 05:26:51;;;;;;;1.38;0.90;;;;;;;;;;8349079;28;20458;-78
2021/08/06 05:30:56;;;;;;;0.98;0.68;;;;;;;;;;8364640;28;20409;-78
2021/08/06 05:35:02;;;;;;;0.85;0.70;;;;;;;;;;8366566;28;20044;-78
2021/08/06 05:39:07;;;;;;;1.60;1.10;;;;;;;;;;8384468;28;20496;-80
2021/08/06 05:43:13;;;;;;;1.00;0.90;;;;;;;;;;8367680;28;20365;-79
2021/08/06 05:47:19;;;;;;;0.65;0.65;;;;;;;;;;8350952;28;20563;-78
2021/08/06 05:51:24;;;;;;;0.77;0.60;;;;;;;;;;8355682;28;20415;-78
2021/08/06 05:55:29;;;;;;;1.42;0.70;;;;;;;;;;8286221;28;20046;-78
2021/08/06 05:59:40;;;;;;;3.45;0.73;;;;;;;;;;8319515;28;20688;-77
2021/08/06 06:03:46;;;;;;;1.33;0.80;;;;;;;;;;8327078;28;20470;-78
2021/08/06 06:08:14;;;;;;;1.40;1.00;;;;;;;;;;8361451;28;20330;-76
2021/08/06 06:12:19;;;;;;;0.77;0.73;;;;;;;;;;8362196;28;20065;-76
2021/08/06 06:16:23;;;;;;;0.90;0.80;;;;;;;;;;8325035;28;20065;-78
2021/08/06 06:20:29;;;;;;;0.90;0.70;;;;;;;;;;8343457;28;20466;-78
2021/08/06 06:24:36;;;;;;;1.45;0.98;;;;;;;;;;8195386;28;20478;-78
2021/08/06 06:28:42;;;;;;;1.77;0.90;;;;;;;;;;8251167;28;20045;-78
2021/08/06 06:32:46;;;;;;;1.00;0.90;;;;;;;;;;8263970;28;20352;-77
2021/08/06 06:36:51;;;;;;;1.35;0.98;;;;;;;;;;8245753;28;20587;-78
2021/08/06 06:40:57;;;;;;;1.52;1.05;;;;;;;;;;8265573;28;20057;-78
2021/08/06 06:45:07;;;;;;;1.23;0.88;;;;;;;;;;8188645;28;20473;-78
2021/08/06 06:49:13;;;;;;;1.55;1.20;;;;;;;;;;8260308;28;20480;-78
2021/08/06 06:53:18;;;;;;;3.67;1.00;;;;;;;;;;8245756;28;20326;-78
2021/08/06 06:57:25;;;;;;;2.63;1.00;;;;;;;;;;8244574;28;20045;-78
2021/08/06 07:01:31;;;;;;;1.33;1.08;;;;;;;;;;8260682;28;20467;-78
2021/08/06 07:05:37;;;;;;;1.10;1.00;;;;;;;;;;8244669;28;20048;-76
2021/08/06 07:09:42;;;;;;;1.17;0.80;;;;;;;;;;8259716;28;20479;-78
2021/08/06 07:13:47;;;;;;;1.77;1.00;;;;;;;;;;8262179;28;20355;-77
2021/08/06 07:17:53;;;;;;;2.45;1.00;;;;;;;;;;8242662;28;20353;-79
2021/08/06 07:22:03;;;;;;;2.35;1.08;;;;;;;;;;8245531;28;20456;-79
2021/08/06 07:26:09;;;;;;;1.85;0.98;;;;;;;;;;8244299;28;20602;-78
2021/08/06 07:30:16;;;;;;;1.33;0.82;;;;;;;;;;8247510;28;20368;-78
2021/08/06 07:34:22;;;;;;;1.42;0.98;;;;;;;;;;8244291;28;20379;-78
2021/08/06 07:38:28;;;;;;;0.88;0.77;;;;;;;;;;8259436;28;20514;-77
2021/08/06 07:42:34;;;;;;;1.40;0.80;;;;;;;;;;8261352;28;20440;-77
2021/08/06 07:46:40;;;;;;;1.15;0.90;;;;;;;;;;8260422;28;20464;-80
2021/08/06 07:50:45;;;;;;;1.83;0.90;;;;;;;;;;8263572;28;20067;-78
2021/08/06 07:54:50;;;;;;;1.67;0.98;;;;;;;;;;8260143;28;20494;-78
2021/08/06 07:58:56;;;;;;;2.35;0.88;;;;;;;;;;8244811;28;20055;-78
2021/08/06 08:03:01;;;;;;;0.82;0.75;;;;;;;;;;8261451;28;20376;-78
2021/08/06 08:07:11;;;;;;;1.05;0.80;;;;;;;;;;8246618;28;20041;-78
2021/08/06 08:11:18;;;;;;;1.63;0.98;;;;;;;;;;8263151;28;20487;-79
2021/08/06 08:15:22;;;;;;;1.17;0.90;;;;;;;;;;8243138;28;20379;-78
2021/08/06 08:19:28;;;;;;;1.20;0.90;;;;;;;;;;8257208;28;20475;-77
2021/08/06 08:23:34;;;;;;;1.27;0.95;;;;;;;;;;8260515;28;20428;-77
2021/08/06 08:27:40;;;;;;;1.08;0.90;;;;;;;;;;8190889;28;20459;-76
2021/08/06 08:31:45;;;;;;;2.80;0.98;;;;;;;;;;8191152;28;20053;-77
2021/08/06 08:35:51;;;;;;;1.67;1.15;;;;;;;;;;8266149;28;20370;-76
2021/08/06 08:39:57;;;;;;;1.00;0.80;;;;;;;;;;8227859;28;20050;-78
2021/08/06 08:44:03;;;;;;;4.85;1.35;;;;;;;;;;8226897;28;20037;-77
2021/08/06 08:48:13;;;;;;;4.05;1.80;;;;;;;;;;8226233;28;20476;-76
2021/08/06 08:52:20;;;;;;;2.10;1.50;;;;;;;;;;8209211;28;20380;-77
2021/08/06 08:56:25;;;;;;;2.38;1.10;;;;;;;;;;8210921;28;20342;-78
2021/08/06 09:00:30;;;;;;;1.40;1.10;;;;;;;;;;8224883;28;20493;-76
2021/08/06 09:04:34;;;;;;;1.83;1.20;;;;;;;;;;8227895;28;20360;-77
2021/08/06 09:08:41;;;;;;;1.20;0.90;;;;;;;;;;8231078;28;20461;-77
2021/08/06 09:13:02;;;;;;;2.13;1.30;;;;;;;;;;8228532;28;20483;-76
2021/08/06 09:17:36;;;;;;;1.15;1.05;;;;;;;;;;8232922;28;20444;-76
2021/08/06 09:21:42;;;;;;;2.83;1.13;;;;;;;;;;8231178;28;20440;-78
2021/08/06 09:25:47;;;;;;;3.08;1.30;;;;;;;;;;8233630;28;20408;-77
2021/08/06 09:29:52;;;;;;;1.15;1.05;;;;;;;;;;8240836;28;20373;-77
2021/08/06 09:34:12;;;;;;;1.40;1.30;;;;;;;;;;8240333;28;20476;-76
2021/08/06 09:38:19;;;;;;;1.67;1.08;;;;;;;;;;8239852;28;20053;-77
2021/08/06 09:42:35;;;;;;;1.33;1.20;;;;;;;;;;8257801;28;20379;-78
2021/08/06 09:46:40;;;;;;;1.50;1.40;;;;;;;;;;8269860;28;20396;-76
2021/08/06 09:50:47;;;;;;;1.88;1.30;;;;;;;;;;8255465;28;20514;-77
2021/08/06 09:54:52;;;;;;;1.80;1.20;;;;;;;;;;8275154;28;20372;-78
2021/08/06 09:58:59;;;;;;;1.38;1.10;;;;;;;;;;8252961;28;20376;-76
2021/08/06 10:03:03;;;;;;;2.28;1.00;;;;;;;;;;8253033;28;20059;-76
2021/08/06 10:07:08;;;;;;;1.27;1.08;;;;;;;;;;8264049;28;20375;-77
2021/08/06 10:11:14;;;;;;;2.38;1.50;;;;;;;;;;8265123;28;20482;-76
2021/08/06 10:15:21;;;;;;;1.65;1.20;;;;;;;;;;8264570;28;20484;-77
2021/08/06 10:19:26;;;;;;;1.50;1.17;;;;;;;;;;8266454;28;20468;-76
2021/08/06 10:23:30;;;;;;;1.63;1.13;;;;;;;;;;8262329;28;20383;-75
2021/08/06 10:27:35;;;;;;;1.95;0.98;;;;;;;;;;8246196;28;20510;-75
2021/08/06 10:31:42;;;;;;;2.35;0.90;;;;;;;;;;8244082;28;20068;-76
2021/08/06 10:35:49;;;;;;;2.40;1.10;;;;;;;;;;8242992;28;20466;-76
2021/08/06 10:39:54;;;;;;;3.97;0.93;;;;;;;;;;8261875;28;20444;-75
2021/08/06 10:44:06;;;;;;;1.92;1.10;;;;;;;;;;8260353;28;20333;-76
2021/08/06 10:48:29;;;;;;;1.40;1.20;;;;;;;;;;8260574;28;20387;-74
2021/08/06 10:52:34;;;;;;;1.70;1.20;;;;;;;;;;8260563;28;20341;-74
2021/08/06 10:56:40;;;;;;;2.45;1.10;;;;;;;;;;8259522;28;20392;-76
2021/08/06 11:00:46;;;;;;;1.80;1.50;;;;;;;;;;8241906;28;20498;-75
2021/08/06 11:04:50;;;;;;;4.10;1.40;;;;;;;;;;8240602;28;20464;-75
2021/08/06 11:09:13;;;;;;;5.97;1.58;;;;;;;;;;8240453;28;20471;-74
2021/08/06 11:13:33;;;;;;;2.67;1.52;;;;;;;;;;8241700;28;20448;-74
2021/08/06 11:17:47;;;;;;;1.67;1.42;;;;;;;;;;8258033;28;20464;-76
2021/08/06 11:22:34;;;;;;;1.60;1.38;;;;;;;;;;8375693;27;21100;-76
2021/08/06 11:26:47;;;;;;;1.30;1.15;;;;;;;;;;8388200;28;20466;-75
2021/08/06 11:30:52;;;;;;;2.17;1.40;;;;;;;;;;8393785;28;20051;-76
2021/08/06 11:34:58;;;;;;;4.38;1.25;;;;;;;;;;8374744;28;20047;-76
2021/08/06 11:39:15;;;;;;;1.88;1.10;;;;;;;;;;8366631;28;20396;-74
2021/08/06 11:43:24;;;;;;;1.92;1.35;;;;;;;;;;8365836;28;20051;-73
2021/08/06 11:47:42;;;;;;;1.70;1.20;;;;;;;;;;8366708;28;20456;-74
2021/08/06 11:51:48;;;;;;;3.83;1.67;;;;;;;;;;8383341;28;20469;-74
2021/08/06 11:55:54;;;;;;;2.60;1.05;;;;;;;;;;8384156;28;20466;-72
2021/08/06 12:00:24;;;;;;;8.88;1.10;;;;;;;;;;8382835;28;20480;-75
2021/08/06 12:04:29;;;;;;;1.35;1.15;;;;;;;;;;8382565;28;20392;-74
2021/08/06 12:08:35;;;;;;;3.60;1.20;;;;;;;;;;8381230;28;20373;-75
2021/08/06 12:12:40;;;;;;;1.92;1.25;;;;;;;;;;8367604;28;20051;-75
2021/08/06 12:16:45;;;;;;;2.30;0.98;;;;;;;;;;8385147;28;20074;-74
2021/08/06 12:20:57;;;;;;;4.22;1.05;;;;;;;;;;8382850;28;20518;-74
2021/08/06 12:25:15;;;;;;;1.73;1.20;;;;;;;;;;8381230;28;20366;-73
2021/08/06 12:29:23;;;;;;;7.75;1.27;;;;;;;;;;8347719;28;20466;-75
2021/08/06 12:33:28;;;;;;;;;;;;;;;;;;8345218;28;20446;-74
2021/08/06 12:37:37;;;;;;;2.65;1.00;;;;;;;;;;8359254;28;20269;-73
2021/08/06 12:41:44;;;;;;;1.50;0.98;;;;;;;;;;8360175;28;20373;-74
2021/08/06 12:46:09;;;;;;;;;;;;;;;;;;8344684;28;20350;-74
2021/08/06 12:50:27;;;;;;;1.17;0.70;;;;;;;;;;8361198;28;20281;-73
2021/08/06 12:54:43;;;;;;;2.88;1.25;;;;;;;;;;8359276;28;20044;-72
2021/08/06 12:58:48;;;;;;;1.10;0.90;;;;;;;;;;8359554;28;20363;-73
2021/08/06 13:03:06;;;;;;;1.45;0.82;;;;;;;;;;8359335;28;20164;-73
2021/08/06 13:07:26;;;;;;;2.25;1.30;;;;;;;;;;8361712;28;20362;-73
2021/08/06 13:11:32;;;;;;;1.98;1.05;;;;;;;;;;8358974;28;20473;-72
2021/08/06 13:15:37;;;;;;;2.92;0.90;;;;;;;;;;8361701;28;20473;-73
2021/08/06 13:19:42;;;;;;;1.40;0.77;;;;;;;;;;8358657;28;20363;-72
2021/08/06 13:23:47;;;;;;;5.78;1.10;;;;;;;;;;8357414;28;20102;-73
2021/08/06 13:27:52;;;;;;;2.00;1.20;;;;;;;;;;8358874;28;20469;-73
2021/08/06 13:32:05;;;;;;;4.80;1.10;;;;;;;;;;8356593;28;20458;-72
2021/08/06 13:36:10;;;;;;;1.88;0.85;;;;;;;;;;8356966;28;20073;-72
2021/08/06 13:40:16;;;;;;;2.78;0.85;;;;;;;;;;8356179;28;20494;-72
2021/08/06 13:44:21;;;;;;;1.10;0.88;;;;;;;;;;8356648;28;20125;-73
2021/08/06 13:48:26;;;;;;;1.60;0.75;;;;;;;;;;8341771;28;20366;-73
2021/08/06 13:52:31;;;;;;;5.15;0.88;;;;;;;;;;8359005;28;20031;-72
2021/08/06 13:56:36;;;;;;;1.05;0.50;;;;;;;;;;8356028;28;20099;-73
2021/08/06 14:00:41;;;;;;;2.75;1.50;;;;;;;;;;8296325;28;20053;-73
2021/08/06 14:04:46;;;;;;;7.18;4.43;;;;;;;;;;8258759;28;20352;-73
2021/08/06 14:08:52;;;;;;;4.55;1.23;;;;;;;;;;8257999;28;20041;-72
2021/08/06 14:12:57;;;;;;;2.28;0.70;;;;;;;;;;8257100;28;20476;-72
2021/08/06 14:17:02;;;;;;;3.20;1.10;;;;;;;;;;8257802;28;20452;-72
2021/08/06 14:21:07;;;;;;;10.50;1.73;;;;;;;;;;8256984;28;20371;-72
2021/08/06 14:25:12;;;;;;;3.63;1.00;;;;;;;;;;8258341;28;20466;-72
2021/08/06 14:29:19;;;;;;;3.35;1.17;;;;;;;;;;8257691;28;20049;-72
2021/08/06 14:33:24;;;;;;;1.63;0.70;;;;;;;;;;8258508;28;20461;-74
2021/08/06 14:37:29;;;;;;;0.80;0.63;;;;;;;;;;8258367;28;20373;-71
2021/08/06 14:41:35;;;;;;;2.67;0.70;;;;;;;;;;8259855;28;20041;-71
2021/08/06 14:45:40;;;;;;;0.80;0.68;;;;;;;;;;8256655;28;20400;-73
2021/08/06 14:49:45;;;;;;;1.75;1.00;;;;;;;;;;8256050;28;20480;-74
2021/08/06 14:53:50;;;;;;;1.60;0.82;;;;;;;;;;8256163;28;20045;-73
2021/08/06 14:57:55;;;;;;;1.58;1.00;;;;;;;;;;8254233;28;20367;-73
2021/08/06 15:02:01;;;;;;;1.70;0.80;;;;;;;;;;8257217;28;20460;-74
2021/08/06 15:06:06;;;;;;;5.22;2.15;;;;;;;;;;8255322;28;20464;-73
2021/08/06 15:10:12;;;;;;;1.23;0.60;;;;;;;;;;8257615;28;20494;-73
2021/08/06 15:14:31;;;;;;;1.98;1.00;;;;;;;;;;8255505;28;20383;-73
2021/08/06 15:18:37;;;;;;;3.28;1.08;;;;;;;;;;8255891;28;20367;-74
2021/08/06 15:22:41;;;;;;;2.13;0.90;;;;;;;;;;8258277;28;20360;-73
2021/08/06 15:26:46;;;;;;;1.73;1.00;;;;;;;;;;8256350;28;20490;-74
2021/08/06 15:30:50;;;;;;;1.10;0.60;;;;;;;;;;8270471;28;20072;-73
2021/08/06 15:34:57;;;;;;;6.88;1.23;;;;;;;;;;8257128;28;20475;-73
2021/08/06 15:39:01;;;;;;;2.58;1.20;;;;;;;;;;8256273;28;20373;-74
2021/08/06 15:43:06;;;;;;;1.95;0.88;;;;;;;;;;8257937;28;20398;-75
2021/08/06 15:47:11;;;;;;;2.38;1.02;;;;;;;;;;8254820;28;20449;-73
2021/08/06 15:51:16;;;;;;;2.67;0.93;;;;;;;;;;8256345;28;20363;-73
2021/08/06 15:55:22;;;;;;;1.63;0.82;;;;;;;;;;8254503;28;20376;-73
2021/08/06 15:59:27;;;;;;;1.08;0.68;;;;;;;;;;8256199;28;20067;-73
2021/08/06 16:03:32;;;;;;;1.02;0.82;;;;;;;;;;8256873;28;20339;-73
2021/08/06 16:07:37;;;;;;;5.63;0.70;;;;;;;;;;8258900;28;20037;-74
2021/08/06 16:11:42;;;;;;;1.45;0.95;;;;;;;;;;8262513;28;20468;-73
2021/08/06 16:15:47;;;;;;;4.70;0.90;;;;;;;;;;8259762;28;20464;-74
2021/08/06 16:19:52;;;;;;;8.52;1.60;;;;;;;;;;8259463;28;20378;-73
2021/08/06 16:23:58;;;;;;;3.10;1.00;;;;;;;;;;8261499;28;20063;-73
2021/08/06 16:28:03;;;;;;;3.03;0.98;;;;;;;;;;8243509;28;20456;-74
2021/08/06 16:32:27;;;;;;;1.30;0.90;;;;;;;;;;8231732;28;20356;-73
2021/08/06 16:36:32;;;;;;;2.20;1.30;;;;;;;;;;8260483;28;21196;-74
2021/08/06 16:40:37;;;;;;;1.63;1.08;;;;;;;;;;8204721;28;20484;-73
2021/08/06 16:44:42;;;;;;;0.68;0.60;;;;;;;;;;8261776;28;20337;-74
2021/08/06 16:48:47;;;;;;;1.23;0.65;;;;;;;;;;8259677;28;20479;-73
2021/08/06 16:52:52;;;;;;;4.65;1.30;;;;;;;;;;8262045;28;20383;-74
2021/08/06 16:56:57;;;;;;;1.05;0.80;;;;;;;;;;8257203;28;20357;-74
2021/08/06 17:01:01;;;;;;;1.75;1.13;;;;;;;;;;8256751;28;20045;-74
2021/08/06 17:05:07;;;;;;;7.32;1.15;;;;;;;;;;8261234;28;20450;-73
2021/08/06 17:09:12;;;;;;;12.25;2.10;;;;;;;;;;8259578;28;20578;-73
2021/08/06 17:13:15;;;;;;;3.58;1.60;;;;;;;;;;8258634;28;20472;-74
2021/08/06 17:17:20;;;;;;;11.57;2.45;;;;;;;;;;8260389;28;20503;-73
2021/08/06 17:21:25;;;;;;;4.75;1.95;;;;;;;;;;8257240;28;20379;-73
2021/08/06 17:25:29;;;;;;;5.57;2.38;;;;;;;;;;8259421;28;20333;-73
2021/08/06 17:29:41;;;;;;;3.05;1.83;;;;;;;;;;8258658;28;20355;-73
2021/08/06 17:33:44;;;;;;;2.67;1.65;;;;;;;;;;8258356;28;20055;-73
2021/08/06 17:37:49;;;;;;;5.20;1.63;;;;;;;;;;8208265;28;20379;-72
2021/08/06 17:41:55;;;;;;;9.45;1.95;;;;;;;;;;8261113;28;20373;-73
2021/08/06 17:46:01;;;;;;;5.30;2.97;;;;;;;;;;8256105;28;20589;-72
2021/08/06 17:50:05;;;;;;;9.23;4.00;;;;;;;;;;8253008;28;20482;-73
2021/08/06 17:54:10;;;;;;;6.10;3.05;;;;;;;;;;8256804;28;20341;-73
2021/08/06 17:58:14;;;;;;;8.90;2.55;;;;;;;;;;8256012;28;20468;-73
2021/08/06 18:02:17;;;;;;;3.25;1.42;;;;;;;;;;8265445;28;20460;-73
2021/08/06 18:06:23;;;;;;;5.20;2.03;;;;;;;;;;8256381;28;20491;-73
2021/08/06 18:10:27;;;;;;;7.00;1.45;;;;;;;;;;8255869;28;20464;-73
2021/08/06 18:14:33;;;;;;;4.72;1.48;;;;;;;;;;8258502;28;20367;-74
2021/08/06 18:18:36;;;;;;;5.15;1.90;;;;;;;;;;8255517;28;20156;-73
2021/08/06 18:22:41;;;;;;;4.22;2.40;;;;;;;;;;8238082;28;20049;-73
2021/08/06 18:26:46;;;;;;;8.98;1.77;;;;;;;;;;8258416;28;20396;-75
2021/08/06 18:30:52;;;;;;;3.92;1.70;;;;;;;;;;8256191;28;20059;-73
2021/08/06 18:34:56;;;;;;;8.00;2.10;;;;;;;;;;8257359;28;20375;-72
2021/08/06 18:39:01;;;;;;;10.65;4.10;;;;;;;;;;8256579;28;20368;-73
2021/08/06 18:43:07;;;;;;;15.38;4.25;;;;;;;;;;8257531;28;20049;-73
2021/08/06 18:47:12;;;;;;;3.90;2.33;;;;;;;;;;8256679;28;20375;-73
2021/08/06 18:51:20;;;;;;;7.22;3.53;;;;;;;;;;8254754;28;20482;-73
2021/08/06 18:55:23;;;;;;;8.50;3.97;;;;;;;;;;8273190;28;20321;-74
2021/08/06 18:59:28;;;;;;;11.55;4.40;;;;;;;;;;8257376;28;20489;-73
2021/08/06 19:03:35;;;;;;;16.13;4.65;;;;;;;;;;8257504;28;20472;-73
2021/08/06 19:07:40;;;;;;;11.23;4.07;;;;;;;;;;8256571;28;20041;-71
2021/08/06 19:11:47;;;;;;;9.88;4.28;;;;;;;;;;8257884;28;20045;-74
2021/08/06 19:15:52;;;;;;;7.53;3.70;;;;;;;;;;8255580;28;20478;-73
2021/08/06 19:19:57;;;;;;;6.95;2.75;;;;;;;;;;8256608;28;20506;-72
2021/08/06 19:24:02;;;;;;;10.13;1.70;;;;;;;;;;8255552;28;20599;-73
2021/08/06 19:28:06;;;;;;;5.70;1.80;;;;;;;;;;8256799;28;20368;-73
2021/08/06 19:32:11;;;;;;;4.70;1.70;;;;;;;;;;8255462;28;20574;-73
2021/08/06 19:36:15;;;;;;;2.35;1.40;;;;;;;;;;8239024;28;20361;-73
2021/08/06 19:40:26;;;;;;;3.63;2.00;;;;;;;;;;8255662;28;20360;-73
2021/08/06 19:44:31;;;;;;;19.52;2.53;;;;;;;;;;8262577;28;20409;-73
2021/08/06 19:48:36;;;;;;;8.77;1.80;;;;;;;;;;8262867;28;20063;-73
2021/08/06 19:52:41;;;;;;;9.25;1.75;;;;;;;;;;8260771;28;20056;-73
2021/08/06 19:56:47;;;;;;;7.32;2.10;;;;;;;;;;8262942;28;20484;-74
2021/08/06 20:00:52;;;;;;;8.77;4.88;;;;;;;;;;8261876;28;20163;-73
2021/08/06 20:04:57;;;;;;;11.13;4.13;;;;;;;;;;8244619;28;20375;-73
2021/08/06 20:09:04;;;;;;;6.13;2.33;;;;;;;;;;8261346;28;20049;-73
2021/08/06 20:16:27;;;;;;;13.90;2.20;;;;;;;;;;8088170;28;21217;-72
2021/08/06 20:20:32;;;;;;;5.03;2.13;;;;;;;;;;8283961;28;20068;-72
2021/08/06 20:24:37;;;;;;;6.35;2.35;;;;;;;;;;8287653;28;20466;-72
2021/08/06 20:28:43;;;;;;;8.57;3.78;;;;;;;;;;8267611;28;20340;-73
2021/08/06 20:32:48;;;;;;;10.15;4.70;;;;;;;;;;8284581;28;20452;-72
2021/08/06 20:38:57;;;;;;;19.70;4.65;;;;;;;;;;8000255;27;1262036;-73
2021/08/06 20:43:02;;;;;;;13.88;5.38;;;;;;;;;;8215716;28;20505;-73
2021/08/06 20:47:05;;;;;;;13.07;5.00;;;;;;;;;;8298977;28;20049;-73
2021/08/06 20:51:10;;;;;;;15.73;6.95;;;;;;;;;;8301351;28;20041;-73
2021/08/06 20:55:14;;;;;;;12.63;4.45;;;;;;;;;;8288269;28;20472;-73
2021/08/06 20:59:19;;;;;;;7.03;3.45;;;;;;;;;;8285898;28;20439;-73
2021/08/06 21:03:24;;;;;;;5.95;3.28;;;;;;;;;;8284404;28;20464;-73
2021/08/06 21:07:28;;;;;;;9.27;3.17;;;;;;;;;;8279098;28;20487;-73
2021/08/06 21:11:33;;;;;;;9.75;4.32;;;;;;;;;;8284382;28;20367;-73
2021/08/06 21:15:39;;;;;;;9.25;3.38;;;;;;;;;;8285225;28;20049;-73
2021/08/06 21:19:44;;;;;;;12.20;3.50;;;;;;;;;;8285170;28;20049;-73
2021/08/06 21:23:49;;;;;;;13.18;3.05;;;;;;;;;;8283854;28;20372;-73
2021/08/06 21:27:55;;;;;;;6.95;3.05;;;;;;;;;;8283602;28;20048;-73
2021/08/06 21:32:00;;;;;;;7.68;3.50;;;;;;;;;;8282225;28;20411;-74
2021/08/06 21:36:05;;;;;;;3.83;2.15;;;;;;;;;;8282468;28;20151;-72
2021/08/06 21:40:12;;;;;;;13.73;6.00;;;;;;;;;;8282803;28;20387;-72
2021/08/06 21:44:20;;;;;;;5.88;2.55;;;;;;;;;;8281729;28;20362;-73
2021/08/06 21:48:25;;;;;;;;;;;;;;;;;;8272300;28;20071;-73
2021/08/06 21:52:31;;;;;;;9.15;3.72;;;;;;;;;;8261034;28;20275;-73
2021/08/06 21:56:36;;;;;;;16.35;5.22;;;;;;;;;;8260886;28;20349;-73
2021/08/06 22:00:41;;;;;;;12.18;3.95;;;;;;;;;;8260644;28;20476;-73
2021/08/06 22:04:46;;;;;;;7.95;3.15;;;;;;;;;;8243542;28;20357;-74
2021/08/06 22:08:51;;;;;;;8.77;3.45;;;;;;;;;;8262404;28;20049;-74
2021/08/06 22:12:56;;;;;;;9.80;3.67;;;;;;;;;;8262700;28;20071;-73
2021/08/06 22:17:01;;;;;;;8.27;3.00;;;;;;;;;;8259079;28;20044;-73
2021/08/06 22:21:06;;;;;;;10.05;3.20;;;;;;;;;;8265159;28;20353;-73
2021/08/06 22:25:11;;;;;;;9.23;3.92;;;;;;;;;;8266693;28;20360;-73
2021/08/06 22:29:16;;;;;;;9.88;3.85;;;;;;;;;;8252198;28;20045;-74
2021/08/06 22:33:22;;;;;;;18.67;5.68;;;;;;;;;;8267045;28;20459;-74
2021/08/06 22:37:27;;;;;;;7.82;3.30;;;;;;;;;;8264444;28;20071;-73
2021/08/06 22:41:37;;;;;;;4.50;2.42;;;;;;;;;;8262690;28;20489;-74
2021/08/06 22:45:43;;;;;;;6.25;3.08;;;;;;;;;;8243173;28;20486;-74
2021/08/06 22:49:48;;;;;;;5.97;3.35;;;;;;;;;;8244189;28;20575;-72
2021/08/06 22:53:56;;;;;;;7.03;2.33;;;;;;;;;;8263270;28;20071;-73
2021/08/06 22:58:03;;;;;;;5.53;2.80;;;;;;;;;;8261551;28;20375;-73
2021/08/06 23:02:14;;;;;;;12.55;2.63;;;;;;;;;;8279999;28;20396;-73
2021/08/06 23:06:19;;;;;;;4.72;2.80;;;;;;;;;;8262810;28;20048;-73
2021/08/06 23:10:24;;;;;;;8.13;2.65;;;;;;;;;;8257268;28;20067;-72
2021/08/06 23:14:29;;;;;;;6.43;2.92;;;;;;;;;;8260137;28;20325;-72
2021/08/06 23:18:34;;;;;;;8.65;3.83;;;;;;;;;;8259442;28;20049;-73
2021/08/06 23:22:39;;;;;;;13.80;3.47;;;;;;;;;;8258701;28;20049;-73
2021/08/06 23:26:44;;;;;;;13.77;4.85;;;;;;;;;;8257436;28;20040;-73
2021/08/06 23:30:50;;;;;;;8.23;2.75;;;;;;;;;;8259012;28;20044;-73
2021/08/06 23:34:56;;;;;;;7.93;2.28;;;;;;;;;;8258430;28;20382;-72
2021/08/06 23:39:00;;;;;;;5.10;2.97;;;;;;;;;;8258236;28;20398;-73
2021/08/06 23:43:06;;;;;;;10.52;2.83;;;;;;;;;;8259541;28;20476;-72
2021/08/06 23:47:11;;;;;;;7.10;3.60;;;;;;;;;;8257586;28;20344;-73
2021/08/06 23:51:15;;;;;;;7.63;3.53;;;;;;;;;;8258314;28;20071;-73
2021/08/06 23:55:20;;;;;;;5.15;3.05;;;;;;;;;;8258682;28;20489;-72
2021/08/06 23:59:25;;;;;;;8.60;2.65;;;;;;;;;;8256130;28;20487;-72
